createdAt,value
2023-05-14T18:40:30.129Z,2.47
2023-05-14T18:42:57.218Z,2.31
2023-05-14T18:45:24.598Z,2.23
2023-05-14T18:47:52.052Z,2.38
2023-05-14T18:50:19.738Z,2.20
2023-05-14T18:52:46.894Z,2.40
2023-05-14T18:55:14.360Z,2.16
2023-05-14T18:57:42.911Z,1.95
2023-05-14T19:00:11.493Z,1.75
2023-05-14T19:02:38.948Z,1.82
2023-05-14T19:05:06.989Z,1.73
2023-05-14T19:07:34.362Z,1.75
2023-05-14T19:10:01.737Z,1.76
2023-05-14T19:12:29.095Z,1.68
2023-05-14T19:14:57.634Z,1.79
2023-05-14T19:17:24.869Z,1.93
2023-05-14T19:19:52.072Z,1.90
2023-05-14T19:22:19.800Z,1.86
2023-05-14T19:24:46.983Z,1.73
2023-05-14T19:27:14.106Z,1.89
2023-05-14T19:29:41.152Z,1.67
2023-05-14T19:32:09.903Z,1.46
2023-05-14T19:34:37.073Z,1.45
2023-05-14T19:37:04.596Z,1.35
2023-05-14T19:39:31.808Z,1.31
2023-05-14T19:41:59.082Z,1.19
2023-05-14T19:44:26.366Z,1.70
2023-05-14T19:46:59.327Z,2.58
2023-05-14T19:49:28.046Z,2.18
2023-05-14T19:51:55.177Z,1.77
2023-05-14T19:54:22.381Z,1.64
2023-05-14T19:56:49.666Z,1.55
2023-05-14T19:59:16.825Z,1.84
2023-05-14T20:01:44.172Z,1.80
2023-05-14T20:04:11.425Z,1.91
2023-05-14T20:06:40.026Z,1.94
2023-05-14T20:09:07.386Z,2.16
2023-05-14T20:11:35.588Z,2.24
2023-05-14T20:14:02.790Z,2.77
2023-05-14T20:16:30.199Z,3.23
2023-05-14T20:18:57.516Z,2.83
2023-05-14T20:21:24.808Z,2.35
2023-05-14T20:23:53.929Z,2.27
2023-05-14T20:26:21.332Z,3.29
2023-05-14T20:28:48.465Z,3.05
2023-05-14T20:31:15.650Z,2.49
2023-05-14T20:33:42.902Z,2.43
